Terminal Aerodrome Forecast
Issued by NWS Milwaukee/Sullivan, WI

Home | Current Version | Previous Version | Text Only | Print | Product List | Glossary On
Versions: 1 2 3 4 5 6 7 8 9 10 11 12 13 14 15 16 17 18 19 20 21
000
FTUS43 KMKX 251431 AAA
TAFMSN
TAF AMD
KMSN 251431Z 2515/2612 02009G16KT P6SM FEW250
     FM252000 01008KT P6SM FEW250
     FM260100 04005KT P6SM SKC=

USA.gov is the U.S. government's official web portal to all federal, state and local government web resources and services.